sensor_id;sensor_type;location;lat;lon;timestamp;P1;durP1;ratioP1;P2;durP2;ratioP2
16294;SDS011;8255;49.560;8.244;2023-01-23T00:01:07;9.90;;;8.00;;
16294;SDS011;8255;49.560;8.244;2023-01-23T00:03:35;10.37;;;7.60;;
16294;SDS011;8255;49.560;8.244;2023-01-23T00:06:03;11.70;;;8.67;;
16294;SDS011;8255;49.560;8.244;2023-01-23T00:08:29;10.30;;;8.03;;
16294;SDS011;8255;49.560;8.244;2023-01-23T00:10:57;9.83;;;7.97;;
16294;SDS011;8255;49.560;8.244;2023-01-23T00:13:23;9.40;;;7.97;;
16294;SDS011;8255;49.560;8.244;2023-01-23T00:15:49;10.37;;;7.83;;
16294;SDS011;8255;49.560;8.244;2023-01-23T00:18:16;11.97;;;8.67;;
16294;SDS011;8255;49.560;8.244;2023-01-23T00:20:42;9.70;;;7.97;;
16294;SDS011;8255;49.560;8.244;2023-01-23T00:23:09;10.13;;;8.17;;
16294;SDS011;8255;49.560;8.244;2023-01-23T00:25:35;10.13;;;8.13;;
16294;SDS011;8255;49.560;8.244;2023-01-23T00:28:03;10.57;;;8.53;;
16294;SDS011;8255;49.560;8.244;2023-01-23T00:30:30;9.93;;;8.40;;
16294;SDS011;8255;49.560;8.244;2023-01-23T00:32:56;10.67;;;8.20;;
16294;SDS011;8255;49.560;8.244;2023-01-23T00:35:24;12.80;;;8.30;;
16294;SDS011;8255;49.560;8.244;2023-01-23T00:37:52;10.50;;;8.63;;
16294;SDS011;8255;49.560;8.244;2023-01-23T00:40:19;10.63;;;8.33;;
16294;SDS011;8255;49.560;8.244;2023-01-23T00:42:45;11.20;;;8.67;;
16294;SDS011;8255;49.560;8.244;2023-01-23T00:45:13;10.77;;;8.10;;
16294;SDS011;8255;49.560;8.244;2023-01-23T00:47:39;9.27;;;8.10;;
16294;SDS011;8255;49.560;8.244;2023-01-23T00:50:06;10.97;;;8.47;;
16294;SDS011;8255;49.560;8.244;2023-01-23T00:52:32;10.10;;;7.77;;
16294;SDS011;8255;49.560;8.244;2023-01-23T00:54:59;9.23;;;7.93;;
16294;SDS011;8255;49.560;8.244;2023-01-23T00:57:26;10.17;;;8.07;;
16294;SDS011;8255;49.560;8.244;2023-01-23T00:59:53;10.43;;;8.43;;
16294;SDS011;8255;49.560;8.244;2023-01-23T01:02:20;10.23;;;8.30;;
16294;SDS011;8255;49.560;8.244;2023-01-23T01:04:47;11.13;;;8.50;;
16294;SDS011;8255;49.560;8.244;2023-01-23T01:07:13;12.10;;;8.10;;
16294;SDS011;8255;49.560;8.244;2023-01-23T01:09:39;9.87;;;7.70;;
16294;SDS011;8255;49.560;8.244;2023-01-23T01:12:07;9.17;;;7.60;;
16294;SDS011;8255;49.560;8.244;2023-01-23T01:14:36;11.57;;;8.27;;
16294;SDS011;8255;49.560;8.244;2023-01-23T01:17:02;10.30;;;8.17;;
16294;SDS011;8255;49.560;8.244;2023-01-23T01:19:30;9.73;;;8.20;;
16294;SDS011;8255;49.560;8.244;2023-01-23T01:21:56;10.53;;;7.53;;
16294;SDS011;8255;49.560;8.244;2023-01-23T01:24:22;10.23;;;7.97;;
16294;SDS011;8255;49.560;8.244;2023-01-23T01:26:50;9.57;;;7.30;;
16294;SDS011;8255;49.560;8.244;2023-01-23T01:29:17;9.83;;;7.60;;
16294;SDS011;8255;49.560;8.244;2023-01-23T01:31:43;8.87;;;7.10;;
16294;SDS011;8255;49.560;8.244;2023-01-23T01:34:09;11.47;;;7.83;;
16294;SDS011;8255;49.560;8.244;2023-01-23T01:36:37;11.33;;;8.27;;
16294;SDS011;8255;49.560;8.244;2023-01-23T01:39:03;11.40;;;7.97;;
16294;SDS011;8255;49.560;8.244;2023-01-23T01:41:30;12.30;;;7.77;;
16294;SDS011;8255;49.560;8.244;2023-01-23T01:43:57;9.23;;;7.67;;
16294;SDS011;8255;49.560;8.244;2023-01-23T01:46:24;9.17;;;7.20;;
16294;SDS011;8255;49.560;8.244;2023-01-23T01:48:55;12.17;;;7.13;;
16294;SDS011;8255;49.560;8.244;2023-01-23T01:51:25;9.17;;;7.10;;
16294;SDS011;8255;49.560;8.244;2023-01-23T01:53:56;9.30;;;7.40;;
16294;SDS011;8255;49.560;8.244;2023-01-23T01:56:24;7.50;;;6.47;;
16294;SDS011;8255;49.560;8.244;2023-01-23T01:58:50;9.03;;;7.17;;
16294;SDS011;8255;49.560;8.244;2023-01-23T02:01:17;9.07;;;7.17;;
16294;SDS011;8255;49.560;8.244;2023-01-23T02:03:44;9.70;;;7.13;;
16294;SDS011;8255;49.560;8.244;2023-01-23T02:06:11;9.77;;;7.07;;
16294;SDS011;8255;49.560;8.244;2023-01-23T02:08:39;11.03;;;7.47;;
16294;SDS011;8255;49.560;8.244;2023-01-23T02:11:08;10.30;;;7.83;;
16294;SDS011;8255;49.560;8.244;2023-01-23T02:13:35;9.43;;;7.07;;
16294;SDS011;8255;49.560;8.244;2023-01-23T02:16:04;9.20;;;7.73;;
16294;SDS011;8255;49.560;8.244;2023-01-23T02:18:31;10.17;;;7.53;;
16294;SDS011;8255;49.560;8.244;2023-01-23T02:21:00;10.33;;;7.43;;
16294;SDS011;8255;49.560;8.244;2023-01-23T02:23:28;7.97;;;7.07;;
16294;SDS011;8255;49.560;8.244;2023-01-23T02:26:02;10.80;;;7.87;;
16294;SDS011;8255;49.560;8.244;2023-01-23T02:28:38;9.20;;;7.20;;
16294;SDS011;8255;49.560;8.244;2023-01-23T02:31:06;8.63;;;7.33;;
16294;SDS011;8255;49.560;8.244;2023-01-23T02:33:43;8.87;;;7.10;;
16294;SDS011;8255;49.560;8.244;2023-01-23T02:36:09;9.70;;;7.10;;
16294;SDS011;8255;49.560;8.244;2023-01-23T02:38:36;9.77;;;7.17;;
16294;SDS011;8255;49.560;8.244;2023-01-23T02:41:06;9.10;;;7.43;;
16294;SDS011;8255;49.560;8.244;2023-01-23T02:43:34;10.10;;;7.37;;
16294;SDS011;8255;49.560;8.244;2023-01-23T02:46:05;9.20;;;6.77;;
16294;SDS011;8255;49.560;8.244;2023-01-23T02:48:31;9.70;;;7.10;;
16294;SDS011;8255;49.560;8.244;2023-01-23T02:50:59;9.80;;;7.73;;
16294;SDS011;8255;49.560;8.244;2023-01-23T02:53:27;8.47;;;7.33;;
16294;SDS011;8255;49.560;8.244;2023-01-23T02:55:54;9.83;;;7.30;;
16294;SDS011;8255;49.560;8.244;2023-01-23T02:58:24;10.97;;;7.77;;
16294;SDS011;8255;49.560;8.244;2023-01-23T03:01:08;10.00;;;7.77;;
16294;SDS011;8255;49.560;8.244;2023-01-23T03:03:37;11.00;;;7.63;;
16294;SDS011;8255;49.560;8.244;2023-01-23T03:06:06;9.93;;;7.60;;
16294;SDS011;8255;49.560;8.244;2023-01-23T03:08:32;9.80;;;7.77;;
16294;SDS011;8255;49.560;8.244;2023-01-23T03:11:01;9.43;;;7.70;;
16294;SDS011;8255;49.560;8.244;2023-01-23T03:13:28;10.40;;;7.77;;
16294;SDS011;8255;49.560;8.244;2023-01-23T03:15:55;10.67;;;7.83;;
16294;SDS011;8255;49.560;8.244;2023-01-23T03:18:23;9.60;;;8.10;;
16294;SDS011;8255;49.560;8.244;2023-01-23T03:20:51;10.17;;;7.63;;
16294;SDS011;8255;49.560;8.244;2023-01-23T03:23:18;10.60;;;7.43;;
16294;SDS011;8255;49.560;8.244;2023-01-23T03:25:45;9.67;;;7.97;;
16294;SDS011;8255;49.560;8.244;2023-01-23T03:28:13;9.93;;;7.53;;
16294;SDS011;8255;49.560;8.244;2023-01-23T03:30:54;9.77;;;8.17;;
16294;SDS011;8255;49.560;8.244;2023-01-23T03:33:21;10.80;;;7.80;;
16294;SDS011;8255;49.560;8.244;2023-01-23T03:35:48;9.23;;;7.83;;
16294;SDS011;8255;49.560;8.244;2023-01-23T03:38:14;11.17;;;7.63;;
16294;SDS011;8255;49.560;8.244;2023-01-23T03:40:43;12.47;;;8.33;;
16294;SDS011;8255;49.560;8.244;2023-01-23T03:43:29;10.60;;;7.93;;
16294;SDS011;8255;49.560;8.244;2023-01-23T03:45:57;10.63;;;8.23;;
16294;SDS011;8255;49.560;8.244;2023-01-23T03:48:24;12.07;;;8.07;;
16294;SDS011;8255;49.560;8.244;2023-01-23T03:50:50;9.33;;;7.53;;
16294;SDS011;8255;49.560;8.244;2023-01-23T03:53:18;11.17;;;8.03;;
16294;SDS011;8255;49.560;8.244;2023-01-23T03:55:46;10.47;;;7.60;;
16294;SDS011;8255;49.560;8.244;2023-01-23T03:58:13;9.13;;;6.97;;
16294;SDS011;8255;49.560;8.244;2023-01-23T04:00:42;9.93;;;7.93;;
16294;SDS011;8255;49.560;8.244;2023-01-23T04:03:09;9.30;;;7.30;;
16294;SDS011;8255;49.560;8.244;2023-01-23T04:05:37;10.00;;;7.57;;
16294;SDS011;8255;49.560;8.244;2023-01-23T04:08:03;11.03;;;7.97;;
16294;SDS011;8255;49.560;8.244;2023-01-23T04:10:30;11.17;;;7.80;;
16294;SDS011;8255;49.560;8.244;2023-01-23T04:13:03;10.90;;;7.93;;
16294;SDS011;8255;49.560;8.244;2023-01-23T04:15:30;9.70;;;7.20;;
16294;SDS011;8255;49.560;8.244;2023-01-23T04:17:58;9.97;;;7.80;;
16294;SDS011;8255;49.560;8.244;2023-01-23T04:20:27;10.07;;;8.20;;
16294;SDS011;8255;49.560;8.244;2023-01-23T04:22:56;10.20;;;7.63;;
16294;SDS011;8255;49.560;8.244;2023-01-23T04:25:22;10.67;;;7.63;;
16294;SDS011;8255;49.560;8.244;2023-01-23T04:27:48;7.77;;;6.43;;
16294;SDS011;8255;49.560;8.244;2023-01-23T04:30:14;10.60;;;7.47;;
16294;SDS011;8255;49.560;8.244;2023-01-23T04:32:41;10.13;;;7.97;;
16294;SDS011;8255;49.560;8.244;2023-01-23T04:35:08;8.50;;;7.27;;
16294;SDS011;8255;49.560;8.244;2023-01-23T04:37:38;8.67;;;6.63;;
16294;SDS011;8255;49.560;8.244;2023-01-23T04:40:05;9.10;;;7.13;;
16294;SDS011;8255;49.560;8.244;2023-01-23T04:42:41;8.97;;;7.00;;
16294;SDS011;8255;49.560;8.244;2023-01-23T04:45:24;9.10;;;7.63;;
16294;SDS011;8255;49.560;8.244;2023-01-23T04:48:14;9.87;;;6.80;;
16294;SDS011;8255;49.560;8.244;2023-01-23T04:50:41;9.37;;;7.30;;
16294;SDS011;8255;49.560;8.244;2023-01-23T04:53:09;9.20;;;6.50;;
16294;SDS011;8255;49.560;8.244;2023-01-23T04:55:36;8.63;;;6.80;;
16294;SDS011;8255;49.560;8.244;2023-01-23T04:58:05;9.77;;;7.03;;
16294;SDS011;8255;49.560;8.244;2023-01-23T05:00:31;9.57;;;7.33;;
16294;SDS011;8255;49.560;8.244;2023-01-23T05:02:59;8.20;;;6.27;;
16294;SDS011;8255;49.560;8.244;2023-01-23T05:05:27;9.30;;;7.40;;
16294;SDS011;8255;49.560;8.244;2023-01-23T05:07:58;9.60;;;7.03;;
16294;SDS011;8255;49.560;8.244;2023-01-23T05:10:25;9.40;;;6.53;;
16294;SDS011;8255;49.560;8.244;2023-01-23T05:12:54;8.73;;;6.80;;
16294;SDS011;8255;49.560;8.244;2023-01-23T05:15:21;6.90;;;6.20;;
16294;SDS011;8255;49.560;8.244;2023-01-23T05:17:49;8.70;;;7.20;;
16294;SDS011;8255;49.560;8.244;2023-01-23T05:20:15;8.03;;;6.60;;
16294;SDS011;8255;49.560;8.244;2023-01-23T05:22:42;9.77;;;7.27;;
16294;SDS011;8255;49.560;8.244;2023-01-23T05:25:17;10.20;;;7.00;;
16294;SDS011;8255;49.560;8.244;2023-01-23T05:27:45;9.10;;;7.07;;
16294;SDS011;8255;49.560;8.244;2023-01-23T05:30:12;9.37;;;7.07;;
16294;SDS011;8255;49.560;8.244;2023-01-23T05:32:38;9.10;;;7.13;;
16294;SDS011;8255;49.560;8.244;2023-01-23T05:35:09;8.10;;;6.70;;
16294;SDS011;8255;49.560;8.244;2023-01-23T05:37:37;9.50;;;6.90;;
16294;SDS011;8255;49.560;8.244;2023-01-23T05:40:05;8.23;;;6.70;;
16294;SDS011;8255;49.560;8.244;2023-01-23T05:43:09;9.00;;;7.40;;
16294;SDS011;8255;49.560;8.244;2023-01-23T05:46:15;9.40;;;6.67;;
16294;SDS011;8255;49.560;8.244;2023-01-23T05:48:47;7.43;;;6.57;;
16294;SDS011;8255;49.560;8.244;2023-01-23T05:51:14;10.63;;;7.27;;
16294;SDS011;8255;49.560;8.244;2023-01-23T05:53:41;9.80;;;7.00;;
16294;SDS011;8255;49.560;8.244;2023-01-23T05:56:07;8.40;;;6.00;;
16294;SDS011;8255;49.560;8.244;2023-01-23T05:58:53;9.60;;;6.73;;
16294;SDS011;8255;49.560;8.244;2023-01-23T06:01:27;9.60;;;6.83;;
16294;SDS011;8255;49.560;8.244;2023-01-23T06:04:31;8.37;;;6.90;;
16294;SDS011;8255;49.560;8.244;2023-01-23T06:07:08;8.10;;;6.77;;
16294;SDS011;8255;49.560;8.244;2023-01-23T06:09:38;8.57;;;6.47;;
16294;SDS011;8255;49.560;8.244;2023-01-23T06:12:04;8.10;;;6.70;;
16294;SDS011;8255;49.560;8.244;2023-01-23T06:14:32;9.03;;;6.70;;
16294;SDS011;8255;49.560;8.244;2023-01-23T06:16:58;7.53;;;6.60;;
16294;SDS011;8255;49.560;8.244;2023-01-23T06:19:25;10.93;;;7.13;;
16294;SDS011;8255;49.560;8.244;2023-01-23T06:21:51;8.77;;;6.80;;
16294;SDS011;8255;49.560;8.244;2023-01-23T06:24:18;9.00;;;6.57;;
16294;SDS011;8255;49.560;8.244;2023-01-23T06:26:44;11.50;;;7.07;;
16294;SDS011;8255;49.560;8.244;2023-01-23T06:29:11;8.20;;;6.57;;
16294;SDS011;8255;49.560;8.244;2023-01-23T06:31:38;9.20;;;6.80;;
16294;SDS011;8255;49.560;8.244;2023-01-23T06:34:06;9.13;;;7.07;;
16294;SDS011;8255;49.560;8.244;2023-01-23T06:36:39;9.90;;;6.83;;
16294;SDS011;8255;49.560;8.244;2023-01-23T06:39:05;11.60;;;6.40;;
16294;SDS011;8255;49.560;8.244;2023-01-23T06:41:37;9.67;;;6.80;;
16294;SDS011;8255;49.560;8.244;2023-01-23T06:44:05;7.77;;;6.27;;
16294;SDS011;8255;49.560;8.244;2023-01-23T06:46:33;8.93;;;7.47;;
16294;SDS011;8255;49.560;8.244;2023-01-23T06:49:01;9.47;;;7.87;;
16294;SDS011;8255;49.560;8.244;2023-01-23T06:51:29;8.80;;;7.37;;
16294;SDS011;8255;49.560;8.244;2023-01-23T06:53:56;9.03;;;6.57;;
16294;SDS011;8255;49.560;8.244;2023-01-23T06:56:22;7.40;;;6.03;;
16294;SDS011;8255;49.560;8.244;2023-01-23T06:58:49;8.00;;;6.57;;
16294;SDS011;8255;49.560;8.244;2023-01-23T07:01:27;8.87;;;7.17;;
16294;SDS011;8255;49.560;8.244;2023-01-23T07:04:13;11.93;;;10.17;;
16294;SDS011;8255;49.560;8.244;2023-01-23T07:06:41;14.43;;;11.83;;
16294;SDS011;8255;49.560;8.244;2023-01-23T07:09:08;15.43;;;12.40;;
16294;SDS011;8255;49.560;8.244;2023-01-23T07:11:35;15.00;;;13.13;;
16294;SDS011;8255;49.560;8.244;2023-01-23T07:14:03;15.43;;;12.43;;
16294;SDS011;8255;49.560;8.244;2023-01-23T07:16:30;13.33;;;9.73;;
16294;SDS011;8255;49.560;8.244;2023-01-23T07:18:59;10.90;;;9.50;;
16294;SDS011;8255;49.560;8.244;2023-01-23T07:21:30;8.67;;;7.73;;
16294;SDS011;8255;49.560;8.244;2023-01-23T07:23:57;9.60;;;6.60;;
16294;SDS011;8255;49.560;8.244;2023-01-23T07:26:23;7.47;;;5.83;;
16294;SDS011;8255;49.560;8.244;2023-01-23T07:28:49;7.10;;;6.37;;
16294;SDS011;8255;49.560;8.244;2023-01-23T07:31:16;9.27;;;6.87;;
16294;SDS011;8255;49.560;8.244;2023-01-23T07:33:42;6.93;;;5.70;;
16294;SDS011;8255;49.560;8.244;2023-01-23T07:36:08;6.80;;;5.97;;
16294;SDS011;8255;49.560;8.244;2023-01-23T07:38:39;6.10;;;5.50;;
16294;SDS011;8255;49.560;8.244;2023-01-23T07:41:05;8.13;;;7.32;;
16294;SDS011;8255;49.560;8.244;2023-01-23T07:43:32;6.90;;;6.03;;
16294;SDS011;8255;49.560;8.244;2023-01-23T07:45:58;6.73;;;5.63;;
16294;SDS011;8255;49.560;8.244;2023-01-23T07:48:25;6.30;;;5.63;;
16294;SDS011;8255;49.560;8.244;2023-01-23T07:50:52;6.80;;;6.10;;
16294;SDS011;8255;49.560;8.244;2023-01-23T07:53:18;7.03;;;6.10;;
16294;SDS011;8255;49.560;8.244;2023-01-23T07:55:46;6.40;;;5.30;;
16294;SDS011;8255;49.560;8.244;2023-01-23T07:58:12;6.60;;;5.20;;
16294;SDS011;8255;49.560;8.244;2023-01-23T08:00:38;5.57;;;4.87;;
16294;SDS011;8255;49.560;8.244;2023-01-23T08:03:05;5.87;;;5.27;;
16294;SDS011;8255;49.560;8.244;2023-01-23T08:05:32;5.40;;;4.90;;
16294;SDS011;8255;49.560;8.244;2023-01-23T08:07:58;5.83;;;5.30;;
16294;SDS011;8255;49.560;8.244;2023-01-23T08:10:24;5.50;;;5.00;;
16294;SDS011;8255;49.560;8.244;2023-01-23T08:12:52;6.90;;;6.20;;
16294;SDS011;8255;49.560;8.244;2023-01-23T08:15:19;9.20;;;6.67;;
16294;SDS011;8255;49.560;8.244;2023-01-23T08:17:45;9.50;;;7.63;;
16294;SDS011;8255;49.560;8.244;2023-01-23T08:20:11;8.63;;;6.83;;
16294;SDS011;8255;49.560;8.244;2023-01-23T08:22:38;6.97;;;6.03;;
16294;SDS011;8255;49.560;8.244;2023-01-23T08:25:06;7.27;;;6.00;;
16294;SDS011;8255;49.560;8.244;2023-01-23T08:27:32;6.90;;;6.20;;
16294;SDS011;8255;49.560;8.244;2023-01-23T08:30:00;6.50;;;5.90;;
16294;SDS011;8255;49.560;8.244;2023-01-23T08:32:26;6.90;;;6.10;;
16294;SDS011;8255;49.560;8.244;2023-01-23T08:34:53;6.20;;;5.57;;
16294;SDS011;8255;49.560;8.244;2023-01-23T08:37:20;6.17;;;5.53;;
16294;SDS011;8255;49.560;8.244;2023-01-23T08:39:46;6.93;;;5.30;;
16294;SDS011;8255;49.560;8.244;2023-01-23T08:42:12;5.87;;;5.27;;
16294;SDS011;8255;49.560;8.244;2023-01-23T08:44:39;6.40;;;5.70;;
16294;SDS011;8255;49.560;8.244;2023-01-23T08:47:07;6.30;;;5.67;;
16294;SDS011;8255;49.560;8.244;2023-01-23T08:49:33;5.83;;;5.20;;
16294;SDS011;8255;49.560;8.244;2023-01-23T08:51:59;5.77;;;5.17;;
16294;SDS011;8255;49.560;8.244;2023-01-23T08:54:26;6.73;;;5.63;;
16294;SDS011;8255;49.560;8.244;2023-01-23T08:56:52;7.20;;;6.10;;
16294;SDS011;8255;49.560;8.244;2023-01-23T08:59:18;6.20;;;5.60;;
16294;SDS011;8255;49.560;8.244;2023-01-23T09:01:44;5.80;;;5.30;;
16294;SDS011;8255;49.560;8.244;2023-01-23T09:04:13;6.73;;;5.40;;
16294;SDS011;8255;49.560;8.244;2023-01-23T09:06:41;6.83;;;5.70;;
16294;SDS011;8255;49.560;8.244;2023-01-23T09:09:07;6.67;;;6.07;;
16294;SDS011;8255;49.560;8.244;2023-01-23T09:11:34;5.73;;;5.23;;
16294;SDS011;8255;49.560;8.244;2023-01-23T09:14:00;6.17;;;5.57;;
16294;SDS011;8255;49.560;8.244;2023-01-23T09:16:26;6.53;;;5.93;;
16294;SDS011;8255;49.560;8.244;2023-01-23T09:18:53;5.20;;;4.60;;
16294;SDS011;8255;49.560;8.244;2023-01-23T09:21:21;5.63;;;5.13;;
16294;SDS011;8255;49.560;8.244;2023-01-23T09:23:47;5.70;;;4.87;;
16294;SDS011;8255;49.560;8.244;2023-01-23T09:26:13;6.10;;;5.50;;
16294;SDS011;8255;49.560;8.244;2023-01-23T09:28:40;5.47;;;4.97;;
16294;SDS011;8255;49.560;8.244;2023-01-23T09:31:08;5.33;;;4.80;;
16294;SDS011;8255;49.560;8.244;2023-01-23T09:33:35;5.83;;;5.33;;
16294;SDS011;8255;49.560;8.244;2023-01-23T09:36:01;5.63;;;5.13;;
16294;SDS011;8255;49.560;8.244;2023-01-23T09:38:29;7.87;;;6.77;;
16294;SDS011;8255;49.560;8.244;2023-01-23T09:40:57;6.87;;;6.23;;
16294;SDS011;8255;49.560;8.244;2023-01-23T09:43:26;6.27;;;5.67;;
16294;SDS011;8255;49.560;8.244;2023-01-23T09:45:57;5.73;;;5.20;;
16294;SDS011;8255;49.560;8.244;2023-01-23T09:48:25;6.10;;;5.50;;
16294;SDS011;8255;49.560;8.244;2023-01-23T09:50:53;5.80;;;5.20;;
16294;SDS011;8255;49.560;8.244;2023-01-23T09:53:21;6.63;;;5.80;;
16294;SDS011;8255;49.560;8.244;2023-01-23T09:55:52;7.53;;;6.80;;
16294;SDS011;8255;49.560;8.244;2023-01-23T09:58:23;6.60;;;5.90;;
16294;SDS011;8255;49.560;8.244;2023-01-23T10:00:51;7.63;;;6.10;;
16294;SDS011;8255;49.560;8.244;2023-01-23T10:03:17;6.27;;;5.67;;
16294;SDS011;8255;49.560;8.244;2023-01-23T10:05:58;7.10;;;6.40;;
16294;SDS011;8255;49.560;8.244;2023-01-23T10:08:27;6.73;;;5.73;;
16294;SDS011;8255;49.560;8.244;2023-01-23T10:10:59;7.07;;;5.47;;
16294;SDS011;8255;49.560;8.244;2023-01-23T10:13:32;7.07;;;6.37;;
16294;SDS011;8255;49.560;8.244;2023-01-23T10:18:47;7.40;;;6.40;;
16294;SDS011;8255;49.560;8.244;2023-01-23T10:21:20;6.77;;;6.07;;
16294;SDS011;8255;49.560;8.244;2023-01-23T10:23:52;8.27;;;6.83;;
16294;SDS011;8255;49.560;8.244;2023-01-23T10:26:25;7.70;;;6.90;;
16294;SDS011;8255;49.560;8.244;2023-01-23T10:28:52;8.33;;;6.67;;
16294;SDS011;8255;49.560;8.244;2023-01-23T10:31:22;7.63;;;6.93;;
16294;SDS011;8255;49.560;8.244;2023-01-23T10:33:53;5.57;;;5.07;;
16294;SDS011;8255;49.560;8.244;2023-01-23T10:36:22;6.53;;;5.53;;
16294;SDS011;8255;49.560;8.244;2023-01-23T10:38:53;7.50;;;6.07;;
16294;SDS011;8255;49.560;8.244;2023-01-23T10:41:21;7.87;;;6.20;;
16294;SDS011;8255;49.560;8.244;2023-01-23T10:43:49;7.53;;;5.87;;
16294;SDS011;8255;49.560;8.244;2023-01-23T10:46:17;6.80;;;6.10;;
16294;SDS011;8255;49.560;8.244;2023-01-23T10:48:44;6.20;;;5.60;;
16294;SDS011;8255;49.560;8.244;2023-01-23T10:51:28;7.47;;;6.17;;
16294;SDS011;8255;49.560;8.244;2023-01-23T10:54:02;9.37;;;6.97;;
16294;SDS011;8255;49.560;8.244;2023-01-23T10:56:28;6.93;;;6.00;;
16294;SDS011;8255;49.560;8.244;2023-01-23T10:58:56;6.93;;;6.23;;
16294;SDS011;8255;49.560;8.244;2023-01-23T11:01:24;6.97;;;6.20;;
16294;SDS011;8255;49.560;8.244;2023-01-23T11:03:51;6.67;;;6.03;;
16294;SDS011;8255;49.560;8.244;2023-01-23T11:06:17;6.70;;;5.97;;
16294;SDS011;8255;49.560;8.244;2023-01-23T11:08:49;6.47;;;5.77;;
16294;SDS011;8255;49.560;8.244;2023-01-23T11:11:20;6.80;;;6.10;;
16294;SDS011;8255;49.560;8.244;2023-01-23T11:13:47;6.63;;;5.90;;
16294;SDS011;8255;49.560;8.244;2023-01-23T11:16:16;7.53;;;6.33;;
16294;SDS011;8255;49.560;8.244;2023-01-23T11:18:45;7.33;;;6.63;;
16294;SDS011;8255;49.560;8.244;2023-01-23T11:21:19;7.33;;;6.40;;
16294;SDS011;8255;49.560;8.244;2023-01-23T11:23:45;7.87;;;6.60;;
16294;SDS011;8255;49.560;8.244;2023-01-23T11:28:53;6.67;;;6.00;;
16294;SDS011;8255;49.560;8.244;2023-01-23T11:31:21;9.63;;;7.40;;
16294;SDS011;8255;49.560;8.244;2023-01-23T11:33:49;8.83;;;6.53;;
16294;SDS011;8255;49.560;8.244;2023-01-23T11:36:23;8.30;;;6.80;;
16294;SDS011;8255;49.560;8.244;2023-01-23T11:38:55;8.50;;;6.70;;
16294;SDS011;8255;49.560;8.244;2023-01-23T11:41:28;8.53;;;5.97;;
16294;SDS011;8255;49.560;8.244;2023-01-23T11:43:55;7.27;;;6.47;;
16294;SDS011;8255;49.560;8.244;2023-01-23T11:46:26;7.40;;;6.50;;
16294;SDS011;8255;49.560;8.244;2023-01-23T11:48:58;8.97;;;7.20;;
16294;SDS011;8255;49.560;8.244;2023-01-23T11:51:30;8.17;;;6.93;;
16294;SDS011;8255;49.560;8.244;2023-01-23T11:54:01;8.77;;;7.70;;
16294;SDS011;8255;49.560;8.244;2023-01-23T11:56:38;7.90;;;6.47;;
16294;SDS011;8255;49.560;8.244;2023-01-23T11:59:18;7.83;;;6.83;;
16294;SDS011;8255;49.560;8.244;2023-01-23T12:01:51;7.03;;;5.80;;
16294;SDS011;8255;49.560;8.244;2023-01-23T12:04:24;7.37;;;6.20;;
16294;SDS011;8255;49.560;8.244;2023-01-23T12:07:00;9.07;;;7.07;;
16294;SDS011;8255;49.560;8.244;2023-01-23T12:09:30;7.53;;;6.73;;
16294;SDS011;8255;49.560;8.244;2023-01-23T12:12:02;7.40;;;6.50;;
16294;SDS011;8255;49.560;8.244;2023-01-23T12:14:34;7.07;;;6.37;;
16294;SDS011;8255;49.560;8.244;2023-01-23T12:17:13;6.00;;;5.40;;
16294;SDS011;8255;49.560;8.244;2023-01-23T12:19:44;7.23;;;6.17;;
16294;SDS011;8255;49.560;8.244;2023-01-23T12:22:13;7.47;;;6.77;;
16294;SDS011;8255;49.560;8.244;2023-01-23T12:24:48;9.93;;;6.10;;
16294;SDS011;8255;49.560;8.244;2023-01-23T12:27:18;5.60;;;5.10;;
16294;SDS011;8255;49.560;8.244;2023-01-23T12:29:54;6.20;;;5.60;;
16294;SDS011;8255;49.560;8.244;2023-01-23T12:32:31;7.80;;;6.80;;
16294;SDS011;8255;49.560;8.244;2023-01-23T12:35:03;6.33;;;5.53;;
16294;SDS011;8255;49.560;8.244;2023-01-23T12:37:40;6.90;;;6.20;;
16294;SDS011;8255;49.560;8.244;2023-01-23T12:40:11;7.10;;;5.47;;
16294;SDS011;8255;49.560;8.244;2023-01-23T12:42:39;6.07;;;5.50;;
16294;SDS011;8255;49.560;8.244;2023-01-23T12:45:11;7.00;;;5.80;;
16294;SDS011;8255;49.560;8.244;2023-01-23T12:47:42;6.67;;;5.63;;
16294;SDS011;8255;49.560;8.244;2023-01-23T12:50:13;6.50;;;5.80;;
16294;SDS011;8255;49.560;8.244;2023-01-23T12:52:41;6.40;;;5.80;;
16294;SDS011;8255;49.560;8.244;2023-01-23T12:55:13;7.30;;;6.43;;
16294;SDS011;8255;49.560;8.244;2023-01-23T12:57:41;7.00;;;6.33;;
16294;SDS011;8255;49.560;8.244;2023-01-23T13:00:18;7.47;;;6.50;;
16294;SDS011;8255;49.560;8.244;2023-01-23T13:02:49;6.67;;;5.93;;
16294;SDS011;8255;49.560;8.244;2023-01-23T13:05:20;6.80;;;6.07;;
16294;SDS011;8255;49.560;8.244;2023-01-23T13:07:49;7.37;;;6.13;;
16294;SDS011;8255;49.560;8.244;2023-01-23T13:10:26;6.30;;;5.70;;
16294;SDS011;8255;49.560;8.244;2023-01-23T13:13:15;7.53;;;6.73;;
16294;SDS011;8255;49.560;8.244;2023-01-23T13:15:41;7.00;;;6.40;;
16294;SDS011;8255;49.560;8.244;2023-01-23T13:18:20;7.07;;;6.10;;
16294;SDS011;8255;49.560;8.244;2023-01-23T13:20:52;6.40;;;5.80;;
16294;SDS011;8255;49.560;8.244;2023-01-23T13:23:37;8.03;;;6.63;;
16294;SDS011;8255;49.560;8.244;2023-01-23T13:28:53;7.00;;;6.30;;
16294;SDS011;8255;49.560;8.244;2023-01-23T13:31:23;6.43;;;5.83;;
16294;SDS011;8255;49.560;8.244;2023-01-23T13:33:51;6.60;;;6.00;;
16294;SDS011;8255;49.560;8.244;2023-01-23T13:39:03;6.10;;;5.37;;
16294;SDS011;8255;49.560;8.244;2023-01-23T13:41:30;6.87;;;6.20;;
16294;SDS011;8255;49.560;8.244;2023-01-23T13:44:03;6.40;;;5.80;;
16294;SDS011;8255;49.560;8.244;2023-01-23T13:46:32;6.57;;;5.80;;
16294;SDS011;8255;49.560;8.244;2023-01-23T13:49:04;6.10;;;5.50;;
16294;SDS011;8255;49.560;8.244;2023-01-23T13:51:51;6.43;;;5.83;;
16294;SDS011;8255;49.560;8.244;2023-01-23T13:54:19;6.13;;;5.53;;
16294;SDS011;8255;49.560;8.244;2023-01-23T13:57:04;7.17;;;6.10;;
16294;SDS011;8255;49.560;8.244;2023-01-23T13:59:33;6.57;;;5.87;;
16294;SDS011;8255;49.560;8.244;2023-01-23T14:02:03;5.97;;;5.37;;
16294;SDS011;8255;49.560;8.244;2023-01-23T14:04:54;5.83;;;5.07;;
16294;SDS011;8255;49.560;8.244;2023-01-23T14:07:41;5.87;;;5.37;;
16294;SDS011;8255;49.560;8.244;2023-01-23T14:10:15;6.20;;;5.30;;
16294;SDS011;8255;49.560;8.244;2023-01-23T14:12:42;5.90;;;5.40;;
16294;SDS011;8255;49.560;8.244;2023-01-23T14:15:22;6.20;;;5.60;;
16294;SDS011;8255;49.560;8.244;2023-01-23T14:18:12;6.30;;;5.70;;
16294;SDS011;8255;49.560;8.244;2023-01-23T14:20:42;6.53;;;5.80;;
16294;SDS011;8255;49.560;8.244;2023-01-23T14:23:16;7.47;;;6.57;;
16294;SDS011;8255;49.560;8.244;2023-01-23T14:25:43;6.10;;;5.50;;
16294;SDS011;8255;49.560;8.244;2023-01-23T14:28:11;6.07;;;5.47;;
16294;SDS011;8255;49.560;8.244;2023-01-23T14:30:39;5.87;;;5.37;;
16294;SDS011;8255;49.560;8.244;2023-01-23T14:33:09;6.10;;;5.60;;
16294;SDS011;8255;49.560;8.244;2023-01-23T14:35:35;6.73;;;5.83;;
16294;SDS011;8255;49.560;8.244;2023-01-23T14:38:05;6.50;;;5.90;;
16294;SDS011;8255;49.560;8.244;2023-01-23T14:40:32;6.70;;;6.10;;
16294;SDS011;8255;49.560;8.244;2023-01-23T14:43:00;5.77;;;5.27;;
16294;SDS011;8255;49.560;8.244;2023-01-23T14:45:28;6.53;;;5.30;;
16294;SDS011;8255;49.560;8.244;2023-01-23T14:47:54;5.70;;;5.20;;
16294;SDS011;8255;49.560;8.244;2023-01-23T14:50:22;6.13;;;5.53;;
16294;SDS011;8255;49.560;8.244;2023-01-23T14:52:55;7.23;;;5.67;;
16294;SDS011;8255;49.560;8.244;2023-01-23T14:55:23;6.50;;;5.90;;
16294;SDS011;8255;49.560;8.244;2023-01-23T14:57:50;6.57;;;5.87;;
16294;SDS011;8255;49.560;8.244;2023-01-23T15:00:19;6.50;;;5.90;;
16294;SDS011;8255;49.560;8.244;2023-01-23T15:02:46;5.83;;;5.33;;
16294;SDS011;8255;49.560;8.244;2023-01-23T15:05:16;5.37;;;4.90;;
16294;SDS011;8255;49.560;8.244;2023-01-23T15:07:43;6.03;;;5.53;;
16294;SDS011;8255;49.560;8.244;2023-01-23T15:10:12;6.80;;;5.67;;
16294;SDS011;8255;49.560;8.244;2023-01-23T15:12:40;6.03;;;5.43;;
16294;SDS011;8255;49.560;8.244;2023-01-23T15:15:13;6.10;;;5.60;;
16294;SDS011;8255;49.560;8.244;2023-01-23T15:17:42;6.80;;;5.90;;
16294;SDS011;8255;49.560;8.244;2023-01-23T15:20:24;6.07;;;5.53;;
16294;SDS011;8255;49.560;8.244;2023-01-23T15:22:51;7.43;;;5.60;;